sensor_id;sensor_type;location;lat;lon;timestamp;temperature;humidity
69084;SHT31;56185;48.526;9.044;2023-02-27T00:00:21;-0.66;66.25
69084;SHT31;56185;48.526;9.044;2023-02-27T00:02:48;-0.75;66.65
69084;SHT31;56185;48.526;9.044;2023-02-27T00:05:14;-0.71;65.98
69084;SHT31;56185;48.526;9.044;2023-02-27T00:07:39;-0.69;66.44
69084;SHT31;56185;48.526;9.044;2023-02-27T00:10:06;-0.75;66.10
69084;SHT31;56185;48.526;9.044;2023-02-27T00:12:32;-0.73;66.39
69084;SHT31;56185;48.526;9.044;2023-02-27T00:14:57;-0.81;66.72
69084;SHT31;56185;48.526;9.044;2023-02-27T00:17:22;-0.75;66.42
69084;SHT31;56185;48.526;9.044;2023-02-27T00:19:48;-0.76;66.79
69084;SHT31;56185;48.526;9.044;2023-02-27T00:22:13;-0.72;66.03
69084;SHT31;56185;48.526;9.044;2023-02-27T00:24:38;-0.78;66.28
69084;SHT31;56185;48.526;9.044;2023-02-27T00:27:03;-0.92;66.58
69084;SHT31;56185;48.526;9.044;2023-02-27T00:29:29;-0.95;66.92
69084;SHT31;56185;48.526;9.044;2023-02-27T00:31:54;-0.97;67.16
69084;SHT31;56185;48.526;9.044;2023-02-27T00:34:19;-0.93;67.00
69084;SHT31;56185;48.526;9.044;2023-02-27T00:36:44;-0.91;66.94
69084;SHT31;56185;48.526;9.044;2023-02-27T00:39:09;-0.85;66.47
69084;SHT31;56185;48.526;9.044;2023-02-27T00:41:35;-0.88;66.73
69084;SHT31;56185;48.526;9.044;2023-02-27T00:44:00;-0.91;66.64
69084;SHT31;56185;48.526;9.044;2023-02-27T00:46:25;-0.93;67.21
69084;SHT31;56185;48.526;9.044;2023-02-27T00:48:50;-0.95;67.09
69084;SHT31;56185;48.526;9.044;2023-02-27T00:51:16;-0.96;66.69
69084;SHT31;56185;48.526;9.044;2023-02-27T00:53:41;-0.91;67.15
69084;SHT31;56185;48.526;9.044;2023-02-27T00:56:06;-0.86;66.71
69084;SHT31;56185;48.526;9.044;2023-02-27T00:58:32;-0.85;67.16
69084;SHT31;56185;48.526;9.044;2023-02-27T01:01:00;-0.86;66.80
69084;SHT31;56185;48.526;9.044;2023-02-27T01:03:25;-0.91;66.99
69084;SHT31;56185;48.526;9.044;2023-02-27T01:05:50;-1.02;66.83
69084;SHT31;56185;48.526;9.044;2023-02-27T01:08:15;-0.96;67.26
69084;SHT31;56185;48.526;9.044;2023-02-27T01:10:41;-1.02;67.57
69084;SHT31;56185;48.526;9.044;2023-02-27T01:13:06;-1.04;67.55
69084;SHT31;56185;48.526;9.044;2023-02-27T01:15:31;-0.99;67.57
69084;SHT31;56185;48.526;9.044;2023-02-27T01:17:56;-1.06;67.61
69084;SHT31;56185;48.526;9.044;2023-02-27T01:20:22;-1.06;67.38
69084;SHT31;56185;48.526;9.044;2023-02-27T01:22:47;-1.04;67.50
69084;SHT31;56185;48.526;9.044;2023-02-27T01:25:12;-1.07;67.77
69084;SHT31;56185;48.526;9.044;2023-02-27T01:27:38;-1.02;68.02
69084;SHT31;56185;48.526;9.044;2023-02-27T01:30:03;-1.14;67.81
69084;SHT31;56185;48.526;9.044;2023-02-27T01:32:28;-1.07;67.40
69084;SHT31;56185;48.526;9.044;2023-02-27T01:34:54;-1.02;67.40
69084;SHT31;56185;48.526;9.044;2023-02-27T01:37:19;-1.06;67.35
69084;SHT31;56185;48.526;9.044;2023-02-27T01:39:44;-1.17;67.55
69084;SHT31;56185;48.526;9.044;2023-02-27T01:42:26;-1.12;67.67
69084;SHT31;56185;48.526;9.044;2023-02-27T01:45:24;-1.09;67.69
69084;SHT31;56185;48.526;9.044;2023-02-27T01:47:53;-1.13;68.07
69084;SHT31;56185;48.526;9.044;2023-02-27T01:50:20;-1.12;67.83
69084;SHT31;56185;48.526;9.044;2023-02-27T01:52:51;-1.13;68.05
69084;SHT31;56185;48.526;9.044;2023-02-27T01:55:18;-1.12;68.20
69084;SHT31;56185;48.526;9.044;2023-02-27T01:57:45;-1.17;68.49
69084;SHT31;56185;48.526;9.044;2023-02-27T02:00:12;-1.17;68.59
69084;SHT31;56185;48.526;9.044;2023-02-27T02:02:41;-1.17;68.30
69084;SHT31;56185;48.526;9.044;2023-02-27T02:05:08;-1.14;68.32
69084;SHT31;56185;48.526;9.044;2023-02-27T02:07:36;-1.13;68.24
69084;SHT31;56185;48.526;9.044;2023-02-27T02:10:02;-1.07;68.23
69084;SHT31;56185;48.526;9.044;2023-02-27T02:12:29;-1.07;68.13
69084;SHT31;56185;48.526;9.044;2023-02-27T02:14:55;-1.06;68.29
69084;SHT31;56185;48.526;9.044;2023-02-27T02:17:36;-1.16;68.60
69084;SHT31;56185;48.526;9.044;2023-02-27T02:23:14;-1.07;68.18
69084;SHT31;56185;48.526;9.044;2023-02-27T02:25:58;-1.31;68.76
69084;SHT31;56185;48.526;9.044;2023-02-27T02:39:30;-1.16;68.97
69084;SHT31;56185;48.526;9.044;2023-02-27T02:42:17;-1.20;68.90
69084;SHT31;56185;48.526;9.044;2023-02-27T02:47:45;-1.29;69.41
69084;SHT31;56185;48.526;9.044;2023-02-27T02:50:38;-1.23;69.49
69084;SHT31;56185;48.526;9.044;2023-02-27T02:53:12;-1.30;70.01
69084;SHT31;56185;48.526;9.044;2023-02-27T02:55:52;-1.23;69.32
69084;SHT31;56185;48.526;9.044;2023-02-27T03:01:21;-1.24;69.56
69084;SHT31;56185;48.526;9.044;2023-02-27T03:04:02;-1.26;69.80
69084;SHT31;56185;48.526;9.044;2023-02-27T03:06:32;-1.31;69.78
69084;SHT31;56185;48.526;9.044;2023-02-27T03:09:04;-1.39;70.15
69084;SHT31;56185;48.526;9.044;2023-02-27T03:11:35;-1.36;69.93
69084;SHT31;56185;48.526;9.044;2023-02-27T03:14:10;-1.39;70.67
69084;SHT31;56185;48.526;9.044;2023-02-27T03:16:44;-1.36;69.98
69084;SHT31;56185;48.526;9.044;2023-02-27T03:19:13;-1.36;70.11
69084;SHT31;56185;48.526;9.044;2023-02-27T03:21:48;-1.37;70.47
69084;SHT31;56185;48.526;9.044;2023-02-27T03:24:31;-1.55;70.88
69084;SHT31;56185;48.526;9.044;2023-02-27T03:26:57;-1.47;70.62
69084;SHT31;56185;48.526;9.044;2023-02-27T03:29:30;-1.43;70.63
69084;SHT31;56185;48.526;9.044;2023-02-27T03:34:39;-1.43;70.83
69084;SHT31;56185;48.526;9.044;2023-02-27T03:40:18;-1.47;71.03
69084;SHT31;56185;48.526;9.044;2023-02-27T03:42:53;-1.51;71.61
69084;SHT31;56185;48.526;9.044;2023-02-27T03:45:50;-1.40;71.00
69084;SHT31;56185;48.526;9.044;2023-02-27T03:48:18;-1.46;71.22
69084;SHT31;56185;48.526;9.044;2023-02-27T03:50:44;-1.47;71.46
69084;SHT31;56185;48.526;9.044;2023-02-27T03:53:13;-1.48;71.41
69084;SHT31;56185;48.526;9.044;2023-02-27T03:55:44;-1.55;71.26
69084;SHT31;56185;48.526;9.044;2023-02-27T03:58:10;-1.50;71.09
69084;SHT31;56185;48.526;9.044;2023-02-27T04:00:35;-1.55;71.54
69084;SHT31;56185;48.526;9.044;2023-02-27T04:03:01;-1.62;71.66
69084;SHT31;56185;48.526;9.044;2023-02-27T04:05:27;-1.61;71.55
69084;SHT31;56185;48.526;9.044;2023-02-27T04:24:36;-1.60;71.62
69084;SHT31;56185;48.526;9.044;2023-02-27T04:27:11;-1.62;71.49
69084;SHT31;56185;48.526;9.044;2023-02-27T04:32:34;-1.64;72.19
69084;SHT31;56185;48.526;9.044;2023-02-27T04:35:08;-1.72;71.92
69084;SHT31;56185;48.526;9.044;2023-02-27T04:37:45;-1.72;72.19
69084;SHT31;56185;48.526;9.044;2023-02-27T04:40:17;-1.70;72.27
69084;SHT31;56185;48.526;9.044;2023-02-27T04:42:49;-1.68;71.92
69084;SHT31;56185;48.526;9.044;2023-02-27T04:45:17;-1.77;72.06
69084;SHT31;56185;48.526;9.044;2023-02-27T04:47:52;-1.68;72.42
69084;SHT31;56185;48.526;9.044;2023-02-27T04:50:25;-1.71;72.35
69084;SHT31;56185;48.526;9.044;2023-02-27T04:52:55;-1.75;72.54
69084;SHT31;56185;48.526;9.044;2023-02-27T04:55:26;-1.75;72.51
69084;SHT31;56185;48.526;9.044;2023-02-27T04:58:03;-1.75;72.24
69084;SHT31;56185;48.526;9.044;2023-02-27T05:00:31;-1.75;72.76
69084;SHT31;56185;48.526;9.044;2023-02-27T05:03:04;-1.78;72.55
69084;SHT31;56185;48.526;9.044;2023-02-27T05:05:32;-1.72;72.30
69084;SHT31;56185;48.526;9.044;2023-02-27T05:08:04;-1.72;72.52
69084;SHT31;56185;48.526;9.044;2023-02-27T05:10:57;-1.68;72.30
69084;SHT31;56185;48.526;9.044;2023-02-27T05:13:28;-1.75;73.13
69084;SHT31;56185;48.526;9.044;2023-02-27T05:16:07;-1.85;72.79
69084;SHT31;56185;48.526;9.044;2023-02-27T05:18:33;-1.88;72.98
69084;SHT31;56185;48.526;9.044;2023-02-27T05:29:30;-1.85;73.02
69084;SHT31;56185;48.526;9.044;2023-02-27T05:34:38;-1.83;73.03
69084;SHT31;56185;48.526;9.044;2023-02-27T05:37:27;-1.83;73.11
69084;SHT31;56185;48.526;9.044;2023-02-27T05:39:52;-1.86;73.33
69084;SHT31;56185;48.526;9.044;2023-02-27T05:42:32;-1.88;73.31
69084;SHT31;56185;48.526;9.044;2023-02-27T05:45:04;-1.88;73.23
69084;SHT31;56185;48.526;9.044;2023-02-27T05:47:33;-1.85;73.13
69084;SHT31;56185;48.526;9.044;2023-02-27T05:50:22;-1.91;73.28
69084;SHT31;56185;48.526;9.044;2023-02-27T05:52:50;-1.86;73.23
69084;SHT31;56185;48.526;9.044;2023-02-27T05:55:24;-1.82;72.93
69084;SHT31;56185;48.526;9.044;2023-02-27T05:58:15;-1.85;73.06
69084;SHT31;56185;48.526;9.044;2023-02-27T06:01:00;-1.83;72.93
69084;SHT31;56185;48.526;9.044;2023-02-27T06:03:27;-1.83;73.14
69084;SHT31;56185;48.526;9.044;2023-02-27T06:05:53;-1.88;73.24
69084;SHT31;56185;48.526;9.044;2023-02-27T06:08:20;-1.99;73.74
69084;SHT31;56185;48.526;9.044;2023-02-27T06:10:45;-1.88;73.22
69084;SHT31;56185;48.526;9.044;2023-02-27T06:13:10;-1.89;73.12
69084;SHT31;56185;48.526;9.044;2023-02-27T06:15:36;-1.96;73.17
69084;SHT31;56185;48.526;9.044;2023-02-27T06:18:02;-1.95;73.49
69084;SHT31;56185;48.526;9.044;2023-02-27T06:20:27;-1.91;73.10
69084;SHT31;56185;48.526;9.044;2023-02-27T06:22:52;-1.86;72.71
69084;SHT31;56185;48.526;9.044;2023-02-27T06:25:17;-1.75;72.39
69084;SHT31;56185;48.526;9.044;2023-02-27T06:27:43;-1.83;72.49
69084;SHT31;56185;48.526;9.044;2023-02-27T06:30:08;-1.83;72.81
69084;SHT31;56185;48.526;9.044;2023-02-27T06:32:34;-1.72;72.51
69084;SHT31;56185;48.526;9.044;2023-02-27T06:34:59;-1.77;72.92
69084;SHT31;56185;48.526;9.044;2023-02-27T06:37:24;-1.83;73.01
69084;SHT31;56185;48.526;9.044;2023-02-27T06:39:50;-1.93;72.59
69084;SHT31;56185;48.526;9.044;2023-02-27T06:42:15;-1.92;73.31
69084;SHT31;56185;48.526;9.044;2023-02-27T06:44:41;-1.91;72.74
69084;SHT31;56185;48.526;9.044;2023-02-27T06:47:06;-1.83;73.77
69084;SHT31;56185;48.526;9.044;2023-02-27T06:49:31;-1.77;72.90
69084;SHT31;56185;48.526;9.044;2023-02-27T06:51:56;-1.82;73.38
69084;SHT31;56185;48.526;9.044;2023-02-27T06:54:22;-1.88;73.03
69084;SHT31;56185;48.526;9.044;2023-02-27T06:56:47;-1.67;72.51
69084;SHT31;56185;48.526;9.044;2023-02-27T06:59:13;-1.68;72.55
69084;SHT31;56185;48.526;9.044;2023-02-27T07:01:38;-1.64;72.32
69084;SHT31;56185;48.526;9.044;2023-02-27T07:04:03;-1.55;71.87
69084;SHT31;56185;48.526;9.044;2023-02-27T07:06:28;-1.46;71.52
69084;SHT31;56185;48.526;9.044;2023-02-27T07:08:54;-1.43;71.40
69084;SHT31;56185;48.526;9.044;2023-02-27T07:11:19;-1.37;71.68
69084;SHT31;56185;48.526;9.044;2023-02-27T07:13:44;-1.37;71.15
69084;SHT31;56185;48.526;9.044;2023-02-27T07:16:09;-1.20;71.45
69084;SHT31;56185;48.526;9.044;2023-02-27T07:18:35;-1.26;70.99
69084;SHT31;56185;48.526;9.044;2023-02-27T07:21:00;-1.21;71.11
69084;SHT31;56185;48.526;9.044;2023-02-27T07:23:25;-1.20;70.90
69084;SHT31;56185;48.526;9.044;2023-02-27T07:25:50;-1.19;71.14
69084;SHT31;56185;48.526;9.044;2023-02-27T07:28:16;-1.12;70.99
69084;SHT31;56185;48.526;9.044;2023-02-27T07:30:41;-1.19;70.48
69084;SHT31;56185;48.526;9.044;2023-02-27T07:33:06;-1.02;71.34
69084;SHT31;56185;48.526;9.044;2023-02-27T07:35:32;-0.88;70.02
69084;SHT31;56185;48.526;9.044;2023-02-27T07:37:57;-0.86;70.10
69084;SHT31;56185;48.526;9.044;2023-02-27T07:40:22;-0.86;69.72
69084;SHT31;56185;48.526;9.044;2023-02-27T07:42:47;-0.81;69.55
69084;SHT31;56185;48.526;9.044;2023-02-27T07:45:13;-0.78;69.07
69084;SHT31;56185;48.526;9.044;2023-02-27T07:47:38;-0.72;69.16
69084;SHT31;56185;48.526;9.044;2023-02-27T07:50:04;-0.66;68.50
69084;SHT31;56185;48.526;9.044;2023-02-27T07:52:29;-0.51;68.40
69084;SHT31;56185;48.526;9.044;2023-02-27T07:54:54;-0.44;68.18
69084;SHT31;56185;48.526;9.044;2023-02-27T07:57:19;-0.35;67.77
69084;SHT31;56185;48.526;9.044;2023-02-27T07:59:45;-0.40;67.48
69084;SHT31;56185;48.526;9.044;2023-02-27T08:02:11;-0.32;67.39
69084;SHT31;56185;48.526;9.044;2023-02-27T08:04:36;-0.23;67.34
69084;SHT31;56185;48.526;9.044;2023-02-27T08:07:01;-0.18;66.95
69084;SHT31;56185;48.526;9.044;2023-02-27T08:09:26;-0.23;66.23
69084;SHT31;56185;48.526;9.044;2023-02-27T08:11:52;-0.15;66.38
69084;SHT31;56185;48.526;9.044;2023-02-27T08:14:17;-0.02;66.10
69084;SHT31;56185;48.526;9.044;2023-02-27T08:16:42;0.17;65.99
69084;SHT31;56185;48.526;9.044;2023-02-27T08:19:07;0.01;65.27
69084;SHT31;56185;48.526;9.044;2023-02-27T08:21:33;0.14;65.68
69084;SHT31;56185;48.526;9.044;2023-02-27T08:23:58;0.27;65.45
69084;SHT31;56185;48.526;9.044;2023-02-27T08:26:23;0.40;64.86
69084;SHT31;56185;48.526;9.044;2023-02-27T08:28:50;0.51;64.57
69084;SHT31;56185;48.526;9.044;2023-02-27T08:31:15;0.70;64.10
69084;SHT31;56185;48.526;9.044;2023-02-27T08:33:40;0.70;63.76
69084;SHT31;56185;48.526;9.044;2023-02-27T08:36:06;0.76;63.31
69084;SHT31;56185;48.526;9.044;2023-02-27T08:38:31;0.89;63.21
69084;SHT31;56185;48.526;9.044;2023-02-27T08:40:56;0.86;63.07
69084;SHT31;56185;48.526;9.044;2023-02-27T08:43:22;0.90;63.56
69084;SHT31;56185;48.526;9.044;2023-02-27T08:45:48;0.95;62.63
69084;SHT31;56185;48.526;9.044;2023-02-27T08:48:14;0.96;63.06
69084;SHT31;56185;48.526;9.044;2023-02-27T08:50:43;0.96;62.25
69084;SHT31;56185;48.526;9.044;2023-02-27T08:53:08;1.07;62.06
69084;SHT31;56185;48.526;9.044;2023-02-27T08:55:34;1.19;61.75
69084;SHT31;56185;48.526;9.044;2023-02-27T08:57:59;1.20;61.91
69084;SHT31;56185;48.526;9.044;2023-02-27T09:00:26;1.24;61.40
69084;SHT31;56185;48.526;9.044;2023-02-27T09:02:52;1.36;61.32
69084;SHT31;56185;48.526;9.044;2023-02-27T09:05:17;1.34;60.97
69084;SHT31;56185;48.526;9.044;2023-02-27T09:07:43;1.51;60.89
69084;SHT31;56185;48.526;9.044;2023-02-27T09:10:09;1.59;61.04
69084;SHT31;56185;48.526;9.044;2023-02-27T09:12:34;1.67;59.78
69084;SHT31;56185;48.526;9.044;2023-02-27T09:14:59;1.75;59.87
69084;SHT31;56185;48.526;9.044;2023-02-27T09:17:25;1.68;60.18
69084;SHT31;56185;48.526;9.044;2023-02-27T09:19:50;1.75;59.17
69084;SHT31;56185;48.526;9.044;2023-02-27T09:22:16;1.89;58.62
69084;SHT31;56185;48.526;9.044;2023-02-27T09:24:42;1.82;58.77
69084;SHT31;56185;48.526;9.044;2023-02-27T09:27:07;1.92;58.68
69084;SHT31;56185;48.526;9.044;2023-02-27T09:29:32;1.83;57.56
69084;SHT31;56185;48.526;9.044;2023-02-27T09:31:57;2.15;58.63
69084;SHT31;56185;48.526;9.044;2023-02-27T09:34:23;2.37;57.16
69084;SHT31;56185;48.526;9.044;2023-02-27T09:36:48;2.48;56.14
69084;SHT31;56185;48.526;9.044;2023-02-27T09:39:13;2.56;56.44
69084;SHT31;56185;48.526;9.044;2023-02-27T09:45:00;2.60;54.89
69084;SHT31;56185;48.526;9.044;2023-02-27T09:47:48;2.61;54.95
69084;SHT31;56185;48.526;9.044;2023-02-27T09:50:44;2.75;53.78
69084;SHT31;56185;48.526;9.044;2023-02-27T09:55:49;2.92;53.01
69084;SHT31;56185;48.526;9.044;2023-02-27T09:58:39;2.91;52.54
69084;SHT31;56185;48.526;9.044;2023-02-27T10:01:15;2.98;52.44
69084;SHT31;56185;48.526;9.044;2023-02-27T10:06:20;3.18;51.96
69084;SHT31;56185;48.526;9.044;2023-02-27T10:14:38;2.56;51.19
69084;SHT31;56185;48.526;9.044;2023-02-27T10:17:13;2.48;51.75
69084;SHT31;56185;48.526;9.044;2023-02-27T10:19:42;2.58;53.44
69084;SHT31;56185;48.526;9.044;2023-02-27T10:22:12;2.71;51.10
69084;SHT31;56185;48.526;9.044;2023-02-27T10:24:51;2.74;51.41
69084;SHT31;56185;48.526;9.044;2023-02-27T10:27:20;2.70;50.98
69084;SHT31;56185;48.526;9.044;2023-02-27T10:29:46;2.98;50.61
69084;SHT31;56185;48.526;9.044;2023-02-27T10:32:21;3.25;51.27
69084;SHT31;56185;48.526;9.044;2023-02-27T10:35:05;3.52;49.70
69084;SHT31;56185;48.526;9.044;2023-02-27T10:37:31;3.53;48.84
69084;SHT31;56185;48.526;9.044;2023-02-27T10:39:59;3.39;48.85
69084;SHT31;56185;48.526;9.044;2023-02-27T10:42:28;3.25;48.19
69084;SHT31;56185;48.526;9.044;2023-02-27T10:44:55;3.19;48.89
69084;SHT31;56185;48.526;9.044;2023-02-27T10:47:22;3.26;49.34
69084;SHT31;56185;48.526;9.044;2023-02-27T10:49:48;3.52;49.00
69084;SHT31;56185;48.526;9.044;2023-02-27T10:52:16;3.36;48.59
69084;SHT31;56185;48.526;9.044;2023-02-27T10:54:43;3.47;49.68
69084;SHT31;56185;48.526;9.044;2023-02-27T10:57:27;3.43;49.25
69084;SHT31;56185;48.526;9.044;2023-02-27T10:59:54;3.50;49.26
69084;SHT31;56185;48.526;9.044;2023-02-27T11:02:25;3.81;48.83
69084;SHT31;56185;48.526;9.044;2023-02-27T11:04:53;3.94;48.16
69084;SHT31;56185;48.526;9.044;2023-02-27T11:12:35;4.81;46.58
69084;SHT31;56185;48.526;9.044;2023-02-27T11:15:19;4.88;44.77
69084;SHT31;56185;48.526;9.044;2023-02-27T11:17:45;4.91;44.74
69084;SHT31;56185;48.526;9.044;2023-02-27T11:23:15;4.87;43.99
69084;SHT31;56185;48.526;9.044;2023-02-27T11:25:41;5.03;43.38
69084;SHT31;56185;48.526;9.044;2023-02-27T11:28:21;4.73;43.21
69084;SHT31;56185;48.526;9.044;2023-02-27T11:31:16;4.66;43.57
69084;SHT31;56185;48.526;9.044;2023-02-27T11:33:50;4.39;44.10
69084;SHT31;56185;48.526;9.044;2023-02-27T11:36:17;4.26;44.50
69084;SHT31;56185;48.526;9.044;2023-02-27T11:38:49;4.11;43.87
69084;SHT31;56185;48.526;9.044;2023-02-27T11:41:15;4.39;44.99
69084;SHT31;56185;48.526;9.044;2023-02-27T11:43:49;4.74;43.65
69084;SHT31;56185;48.526;9.044;2023-02-27T11:46:21;4.72;42.94
69084;SHT31;56185;48.526;9.044;2023-02-27T11:52:11;5.07;43.65
69084;SHT31;56185;48.526;9.044;2023-02-27T11:54:54;5.14;42.61
69084;SHT31;56185;48.526;9.044;2023-02-27T11:57:33;5.07;41.56
69084;SHT31;56185;48.526;9.044;2023-02-27T12:05:19;5.01;43.14
69084;SHT31;56185;48.526;9.044;2023-02-27T12:08:03;5.14;42.71
69084;SHT31;56185;48.526;9.044;2023-02-27T12:10:40;5.03;43.21
69084;SHT31;56185;48.526;9.044;2023-02-27T12:13:16;4.90;43.97
69084;SHT31;56185;48.526;9.044;2023-02-27T12:15:45;4.73;44.27
69084;SHT31;56185;48.526;9.044;2023-02-27T12:21:18;4.65;43.47
69084;SHT31;56185;48.526;9.044;2023-02-27T12:23:48;4.26;42.25
69084;SHT31;56185;48.526;9.044;2023-02-27T12:26:25;4.35;42.96
69084;SHT31;56185;48.526;9.044;2023-02-27T12:36:47;4.48;44.59
69084;SHT31;56185;48.526;9.044;2023-02-27T12:39:22;4.45;43.77
69084;SHT31;56185;48.526;9.044;2023-02-27T12:47:11;4.35;45.55
69084;SHT31;56185;48.526;9.044;2023-02-27T12:52:35;4.26;44.28
69084;SHT31;56185;48.526;9.044;2023-02-27T12:55:18;4.35;43.64
69084;SHT31;56185;48.526;9.044;2023-02-27T13:00:25;4.36;45.66
69084;SHT31;56185;48.526;9.044;2023-02-27T13:05:31;4.28;44.63
69084;SHT31;56185;48.526;9.044;2023-02-27T13:08:22;4.29;46.31
69084;SHT31;56185;48.526;9.044;2023-02-27T13:13:26;4.16;45.19
69084;SHT31;56185;48.526;9.044;2023-02-27T13:18:42;4.31;44.69
69084;SHT31;56185;48.526;9.044;2023-02-27T13:21:19;4.19;45.05
69084;SHT31;56185;48.526;9.044;2023-02-27T13:23:57;4.22;45.93
69084;SHT31;56185;48.526;9.044;2023-02-27T13:26:29;4.16;45.82
69084;SHT31;56185;48.526;9.044;2023-02-27T13:28:58;4.02;46.30
69084;SHT31;56185;48.526;9.044;2023-02-27T13:32:04;4.18;45.91
69084;SHT31;56185;48.526;9.044;2023-02-27T13:34:54;4.12;46.09
69084;SHT31;56185;48.526;9.044;2023-02-27T13:37:20;3.99;46.05
69084;SHT31;56185;48.526;9.044;2023-02-27T13:44:55;4.18;46.02
69084;SHT31;56185;48.526;9.044;2023-02-27T13:49:59;4.09;45.81
69084;SHT31;56185;48.526;9.044;2023-02-27T13:52:33;4.31;46.15
69084;SHT31;56185;48.526;9.044;2023-02-27T13:54:59;4.38;45.03
69084;SHT31;56185;48.526;9.044;2023-02-27T13:59:57;4.50;46.01
69084;SHT31;56185;48.526;9.044;2023-02-27T14:02:41;4.38;44.96
69084;SHT31;56185;48.526;9.044;2023-02-27T14:05:09;4.35;45.37
69084;SHT31;56185;48.526;9.044;2023-02-27T14:22:00;4.34;46.55
69084;SHT31;56185;48.526;9.044;2023-02-27T14:24:57;4.28;46.59
69084;SHT31;56185;48.526;9.044;2023-02-27T14:27:26;4.29;46.32
69084;SHT31;56185;48.526;9.044;2023-02-27T14:29:56;4.26;47.53
69084;SHT31;56185;48.526;9.044;2023-02-27T14:32:25;4.18;47.15
69084;SHT31;56185;48.526;9.044;2023-02-27T14:34:53;4.16;46.52
69084;SHT31;56185;48.526;9.044;2023-02-27T14:37:21;4.09;47.35
69084;SHT31;56185;48.526;9.044;2023-02-27T14:39:47;4.05;46.81
69084;SHT31;56185;48.526;9.044;2023-02-27T14:42:31;4.01;46.57
69084;SHT31;56185;48.526;9.044;2023-02-27T14:45:00;3.84;46.94
69084;SHT31;56185;48.526;9.044;2023-02-27T14:47:34;3.74;47.17
69084;SHT31;56185;48.526;9.044;2023-02-27T14:50:01;3.83;47.43
69084;SHT31;56185;48.526;9.044;2023-02-27T14:52:29;3.63;47.97
69084;SHT31;56185;48.526;9.044;2023-02-27T14:55:27;3.67;47.47
69084;SHT31;56185;48.526;9.044;2023-02-27T15:00:34;3.78;47.34
69084;SHT31;56185;48.526;9.044;2023-02-27T15:05:40;3.66;47.66
69084;SHT31;56185;48.526;9.044;2023-02-27T15:08:06;3.63;47.26
69084;SHT31;56185;48.526;9.044;2023-02-27T15:10:41;3.69;47.49
69084;SHT31;56185;48.526;9.044;2023-02-27T15:13:20;3.53;47.29
69084;SHT31;56185;48.526;9.044;2023-02-27T15:15:48;3.60;47.23
69084;SHT31;56185;48.526;9.044;2023-02-27T15:18:13;3.55;48.51
69084;SHT31;56185;48.526;9.044;2023-02-27T15:20:39;3.33;47.21
69084;SHT31;56185;48.526;9.044;2023-02-27T15:23:25;3.40;47.36
69084;SHT31;56185;48.526;9.044;2023-02-27T15:25:55;3.32;48.24
69084;SHT31;56185;48.526;9.044;2023-02-27T15:28:29;3.37;47.86
69084;SHT31;56185;48.526;9.044;2023-02-27T15:30:56;3.18;47.87
69084;SHT31;56185;48.526;9.044;2023-02-27T15:33:27;3.18;48.45
69084;SHT31;56185;48.526;9.044;2023-02-27T15:35:53;3.19;47.99
69084;SHT31;56185;48.526;9.044;2023-02-27T15:38:35;3.16;48.32
69084;SHT31;56185;48.526;9.044;2023-02-27T15:41:01;3.18;47.96
69084;SHT31;56185;48.526;9.044;2023-02-27T15:43:28;3.08;48.05
69084;SHT31;56185;48.526;9.044;2023-02-27T15:45:54;3.13;48.00
69084;SHT31;56185;48.526;9.044;2023-02-27T15:48:20;2.89;48.64
69084;SHT31;56185;48.526;9.044;2023-02-27T15:51:13;2.87;48.80
69084;SHT31;56185;48.526;9.044;2023-02-27T15:53:43;2.96;48.14
69084;SHT31;56185;48.526;9.044;2023-02-27T15:56:12;2.87;48.16
69084;SHT31;56185;48.526;9.044;2023-02-27T15:58:50;2.62;49.15
69084;SHT31;56185;48.526;9.044;2023-02-27T16:01:19;2.73;48.44
69084;SHT31;56185;48.526;9.044;2023-02-27T16:03:47;2.88;48.26
69084;SHT31;56185;48.526;9.044;2023-02-27T16:06:31;2.84;48.20
69084;SHT31;56185;48.526;9.044;2023-02-27T16:09:04;2.87;48.27
69084;SHT31;56185;48.526;9.044;2023-02-27T16:11:33;2.83;48.48
69084;SHT31;56185;48.526;9.044;2023-02-27T16:14:00;2.83;47.72
69084;SHT31;56185;48.526;9.044;2023-02-27T16:16:32;2.62;47.77
69084;SHT31;56185;48.526;9.044;2023-02-27T16:18:59;2.64;47.92
69084;SHT31;56185;48.526;9.044;2023-02-27T16:21:27;2.58;48.76
69084;SHT31;56185;48.526;9.044;2023-02-27T16:23:53;2.74;48.71
69084;SHT31;56185;48.526;9.044;2023-02-27T16:26:31;2.71;49.15
69084;SHT31;56185;48.526;9.044;2023-02-27T16:29:01;2.56;47.94
69084;SHT31;56185;48.526;9.044;2023-02-27T16:31:33;2.56;47.80
69084;SHT31;56185;48.526;9.044;2023-02-27T16:34:15;2.58;47.77
69084;SHT31;56185;48.526;9.044;2023-02-27T16:36:49;2.48;47.31
69084;SHT31;56185;48.526;9.044;2023-02-27T16:39:15;2.48;47.90
69084;SHT31;56185;48.526;9.044;2023-02-27T16:41:41;2.47;47.94
69084;SHT31;56185;48.526;9.044;2023-02-27T16:44:06;2.48;48.45
69084;SHT31;56185;48.526;9.044;2023-02-27T16:46:31;2.40;48.28
69084;SHT31;56185;48.526;9.044;2023-02-27T16:48:57;2.46;49.24
69084;SHT31;56185;48.526;9.044;2023-02-27T16:51:25;2.40;48.29
69084;SHT31;56185;48.526;9.044;2023-02-27T16:53:52;2.37;48.81
69084;SHT31;56185;48.526;9.044;2023-02-27T16:56:18;2.29;48.37
69084;SHT31;56185;48.526;9.044;2023-02-27T16:58:44;2.25;48.82
69084;SHT31;56185;48.526;9.044;2023-02-27T17:01:10;2.33;49.50
69084;SHT31;56185;48.526;9.044;2023-02-27T17:03:36;2.07;49.18
69084;SHT31;56185;48.526;9.044;2023-02-27T17:06:01;2.12;49.65
69084;SHT31;56185;48.526;9.044;2023-02-27T17:08:26;2.10;49.60
69084;SHT31;56185;48.526;9.044;2023-02-27T17:10:51;2.17;49.62
69084;SHT31;56185;48.526;9.044;2023-02-27T17:13:17;2.15;49.95
69084;SHT31;56185;48.526;9.044;2023-02-27T17:15:42;2.05;49.71
69084;SHT31;56185;48.526;9.044;2023-02-27T17:18:07;2.15;49.85
69084;SHT31;56185;48.526;9.044;2023-02-27T17:20:33;2.09;48.97
69084;SHT31;56185;48.526;9.044;2023-02-27T17:22:58;2.06;48.80
69084;SHT31;56185;48.526;9.044;2023-02-27T17:25:23;2.03;49.85
69084;SHT31;56185;48.526;9.044;2023-02-27T17:27:48;2.05;48.49
69084;SHT31;56185;48.526;9.044;2023-02-27T17:30:14;2.03;48.92
69084;SHT31;56185;48.526;9.044;2023-02-27T17:32:40;2.03;48.84
69084;SHT31;56185;48.526;9.044;2023-02-27T17:35:05;2.13;49.16
69084;SHT31;56185;48.526;9.044;2023-02-27T17:37:31;2.13;48.94
69084;SHT31;56185;48.526;9.044;2023-02-27T17:39:56;2.06;48.88
69084;SHT31;56185;48.526;9.044;2023-02-27T17:42:21;1.89;48.22
69084;SHT31;56185;48.526;9.044;2023-02-27T17:47:18;1.83;49.06
69084;SHT31;56185;48.526;9.044;2023-02-27T17:49:44;1.85;48.69
69084;SHT31;56185;48.526;9.044;2023-02-27T17:52:10;1.86;48.92
69084;SHT31;56185;48.526;9.044;2023-02-27T17:54:35;1.83;49.84
69084;SHT31;56185;48.526;9.044;2023-02-27T17:57:01;1.82;48.48
69084;SHT31;56185;48.526;9.044;2023-02-27T17:59:27;1.82;48.95
69084;SHT31;56185;48.526;9.044;2023-02-27T18:01:52;1.81;48.89
69084;SHT31;56185;48.526;9.044;2023-02-27T18:04:17;1.86;49.12
69084;SHT31;56185;48.526;9.044;2023-02-27T18:06:43;1.83;49.05
69084;SHT31;56185;48.526;9.044;2023-02-27T18:09:09;1.85;49.33
69084;SHT31;56185;48.526;9.044;2023-02-27T18:11:35;1.78;49.06
69084;SHT31;56185;48.526;9.044;2023-02-27T18:14:00;1.79;49.00
69084;SHT31;56185;48.526;9.044;2023-02-27T18:16:25;1.81;49.67
69084;SHT31;56185;48.526;9.044;2023-02-27T18:18:51;1.79;49.43
69084;SHT31;56185;48.526;9.044;2023-02-27T18:21:18;1.81;49.40
69084;SHT31;56185;48.526;9.044;2023-02-27T18:23:45;1.68;48.59